Time;durP1;ratioP1;P1;durP2;ratioP2;P2;SDS_P1;SDS_P2;PMS_P1;PMS_P2;Temp;Humidity;BMP_temperature;BMP_pressure;BME280_temperature;BME280_humidity;BME280_pressure;Samples;Min_cycle;Max_cycle;Signal;HPM_P1;HPM_P2
2023/07/21 00:00:14;;;;;;;2.55;1.30;;;12.70;98.30;;;;;;4992000;28;20274;-74
2023/07/21 00:02:41;;;;;;;1.65;1.17;;;12.80;92.30;;;;;;4995878;28;20187;-74
2023/07/21 00:05:07;;;;;;;3.35;1.35;;;13.00;32.60;;;;;;4997085;28;20694;-73
2023/07/21 00:07:35;;;;;;;1.73;1.35;;;13.10;23.90;;;;;;4994689;28;20266;-74
2023/07/21 00:10:07;;;;;;;1.73;1.35;;;13.20;1.00;;;;;;4996471;28;20203;-73
2023/07/21 00:12:40;;;;;;;1.90;1.20;;;13.40;1.00;;;;;;4996876;28;20185;-74
2023/07/21 00:15:07;;;;;;;1.67;1.25;;;13.50;1.00;;;;;;4997523;28;20690;-73
2023/07/21 00:17:34;;;;;;;1.27;1.08;;;13.40;1.00;;;;;;4992376;28;20206;-74
2023/07/21 00:20:11;;;;;;;1.63;1.25;;;13.30;1.00;;;;;;4994684;28;20230;-75
2023/07/21 00:22:38;;;;;;;2.05;1.30;;;13.30;1.00;;;;;;4989897;28;20184;-73
2023/07/21 00:25:05;;;;;;;1.83;1.30;;;13.30;1.00;;;;;;4994117;28;20208;-74
2023/07/21 00:27:32;;;;;;;3.42;1.30;;;13.30;1.00;;;;;;4992012;28;20620;-74
2023/07/21 00:29:58;;;;;;;2.03;1.35;;;13.40;1.00;;;;;;4987675;28;20198;-74
2023/07/21 00:32:24;;;;;;;1.95;1.20;;;13.30;1.00;;;;;;4990379;28;20192;-74
2023/07/21 00:34:52;;;;;;;2.75;1.48;;;13.30;1.00;;;;;;4998965;28;20211;-75
2023/07/21 00:37:17;;;;;;;2.15;1.40;;;13.40;1.00;;;;;;4992806;28;20187;-74
2023/07/21 00:39:44;;;;;;;1.48;1.27;;;13.20;1.00;;;;;;4990470;28;20266;-74
2023/07/21 00:42:13;;;;;;;1.38;1.23;;;13.20;1.00;;;;;;4989527;28;20237;-74
2023/07/21 00:44:39;;;;;;;1.65;1.20;;;13.30;1.00;;;;;;4974985;28;20211;-74
2023/07/21 00:47:05;;;;;;;2.03;1.30;;;13.20;1.00;;;;;;4996563;28;20230;-74
2023/07/21 00:49:32;;;;;;;1.35;1.20;;;13.30;1.00;;;;;;4998191;28;20281;-74
2023/07/21 00:51:58;;;;;;;2.08;1.38;;;13.20;1.00;;;;;;5001029;28;20624;-74
2023/07/21 00:54:24;;;;;;;1.35;1.25;;;13.10;1.00;;;;;;4987435;28;20294;-74
2023/07/21 00:56:50;;;;;;;1.38;1.10;;;13.30;1.00;;;;;;4995069;28;20168;-74
2023/07/21 00:59:17;;;;;;;1.88;1.15;;;13.30;1.00;;;;;;4968321;28;20188;-75
2023/07/21 01:01:42;;;;;;;1.40;1.30;;;13.20;1.00;;;;;;4993944;28;20962;-74
2023/07/21 01:04:09;;;;;;;1.15;1.05;;;13.20;1.00;;;;;;4991274;28;20699;-73
2023/07/21 01:06:37;;;;;;;1.75;1.30;;;13.30;1.00;;;;;;4992815;28;20750;-74
2023/07/21 01:09:06;;;;;;;1.63;1.15;;;13.40;1.00;;;;;;4992677;28;20200;-74
2023/07/21 01:11:33;;;;;;;1.48;1.38;;;13.40;1.00;;;;;;4995407;28;20184;-74
2023/07/21 01:14:02;;;;;;;1.73;1.20;;;13.60;1.00;;;;;;4992884;28;20635;-74
2023/07/21 01:16:28;;;;;;;2.38;1.50;;;13.70;1.00;;;;;;4996111;28;20605;-75
2023/07/21 01:18:56;;;;;;;1.42;1.30;;;13.80;1.00;;;;;;4997975;28;20705;-74
2023/07/21 01:21:37;;;;;;;1.40;1.30;;;13.60;1.00;;;;;;4990731;28;20600;-74
2023/07/21 01:24:37;;;;;;;1.48;1.30;;;13.90;1.00;;;;;;4991919;28;20556;-75
2023/07/21 01:27:05;;;;;;;1.65;1.20;;;13.90;1.00;;;;;;4984707;28;20227;-74
2023/07/21 01:29:35;;;;;;;1.65;1.20;;;14.00;1.00;;;;;;4993936;28;20342;-75
2023/07/21 01:32:04;;;;;;;1.27;1.10;;;14.00;1.00;;;;;;4997844;28;20592;-75
2023/07/21 01:34:34;;;;;;;1.40;1.20;;;14.10;1.00;;;;;;4999634;28;20258;-74
2023/07/21 01:37:01;;;;;;;1.38;1.10;;;14.00;1.00;;;;;;4988261;28;20183;-73
2023/07/21 01:39:28;;;;;;;2.42;1.48;;;14.00;1.00;;;;;;4977989;28;20408;-74
2023/07/21 01:41:55;;;;;;;1.70;1.60;;;14.00;1.00;;;;;;4994941;28;20199;-74
2023/07/21 01:44:22;;;;;;;2.08;1.17;;;14.00;1.00;;;;;;4983920;28;20551;-75
2023/07/21 01:46:48;;;;;;;1.73;1.20;;;14.10;1.00;;;;;;4994760;28;20183;-75
2023/07/21 01:49:15;;;;;;;1.52;1.10;;;14.10;1.00;;;;;;4975054;28;20218;-74
2023/07/21 01:51:42;;;;;;;2.10;1.52;;;14.10;1.00;;;;;;4997063;28;20219;-74
2023/07/21 01:54:33;;;;;;;1.85;1.27;;;14.10;1.00;;;;;;4988580;28;20250;-74
2023/07/21 01:57:04;;;;;;;2.42;1.40;;;14.20;1.00;;;;;;4994841;28;20180;-74
2023/07/21 01:59:29;;;;;;;2.03;1.70;;;14.30;14.90;;;;;;4996273;28;20920;-74
2023/07/21 02:01:56;;;;;;;2.03;1.67;;;14.40;5.20;;;;;;4994857;28;20188;-74
2023/07/21 02:04:22;;;;;;;3.35;1.65;;;14.50;1.00;;;;;;4999758;28;20215;-75
2023/07/21 02:06:48;;;;;;;2.05;1.27;;;14.50;8.60;;;;;;4982760;28;20192;-75
2023/07/21 02:09:15;;;;;;;1.95;1.70;;;14.60;1.00;;;;;;4999015;28;20211;-75
2023/07/21 02:11:41;;;;;;;2.28;1.85;;;14.50;1.00;;;;;;5001143;28;20191;-74
2023/07/21 02:14:06;;;;;;;2.17;1.98;;;14.30;1.00;;;;;;4997562;28;20184;-74
2023/07/21 02:16:32;;;;;;;1.73;1.63;;;14.40;1.00;;;;;;4998212;28;20755;-74
2023/07/21 02:18:58;;;;;;;1.80;1.48;;;14.40;1.00;;;;;;4996797;28;20192;-74
2023/07/21 02:21:24;;;;;;;3.70;1.80;;;14.50;1.00;;;;;;4997571;28;20188;-74
2023/07/21 02:23:50;;;;;;;1.70;1.52;;;14.40;1.00;;;;;;5005227;28;20735;-76
2023/07/21 02:26:15;;;;;;;1.75;1.63;;;14.40;1.00;;;;;;5000248;28;20294;-75
2023/07/21 02:28:41;;;;;;;2.80;1.80;;;14.40;1.00;;;;;;4994198;28;20326;-75
2023/07/21 02:31:09;;;;;;;1.63;1.50;;;14.40;1.00;;;;;;4994062;28;20184;-74
2023/07/21 02:33:35;;;;;;;2.38;1.67;;;14.40;1.00;;;;;;4976306;28;20660;-74
2023/07/21 02:36:03;;;;;;;1.67;1.45;;;14.40;1.00;;;;;;4998944;28;20203;-76
2023/07/21 02:38:29;;;;;;;1.92;1.38;;;14.40;1.00;;;;;;4999734;28;20841;-74
2023/07/21 02:41:00;;;;;;;2.20;1.65;;;14.50;1.00;;;;;;5002180;28;20184;-75
2023/07/21 02:43:26;;;;;;;3.17;1.50;;;14.50;7.40;;;;;;4994725;28;20545;-74
2023/07/21 02:45:52;;;;;;;2.05;1.67;;;14.40;18.60;;;;;;4997349;28;20208;-74
2023/07/21 02:48:19;;;;;;;1.77;1.58;;;14.40;18.20;;;;;;4998942;28;20204;-74
2023/07/21 02:50:49;;;;;;;1.50;1.40;;;14.40;32.80;;;;;;4993460;28;20655;-74
2023/07/21 02:53:17;;;;;;;1.65;1.30;;;14.40;3.40;;;;;;4993551;28;20199;-74
2023/07/21 02:55:44;;;;;;;1.98;1.50;;;14.50;1.00;;;;;;5000494;28;20203;-74
2023/07/21 02:58:12;;;;;;;1.60;1.50;;;14.50;16.70;;;;;;4994549;28;20693;-74
2023/07/21 03:00:38;;;;;;;2.90;1.40;;;14.50;22.10;;;;;;4992825;28;20583;-74
2023/07/21 03:03:04;;;;;;;2.20;1.45;;;14.50;11.50;;;;;;4999319;28;20192;-74
2023/07/21 03:05:30;;;;;;;1.98;1.42;;;14.50;18.60;;;;;;4995566;28;20246;-74
2023/07/21 03:07:57;;;;;;;2.20;1.38;;;14.50;6.90;;;;;;4991395;28;20202;-75
2023/07/21 03:10:22;;;;;;;1.50;1.40;;;14.50;5.40;;;;;;4999292;28;20187;-74
2023/07/21 03:12:48;;;;;;;2.42;1.30;;;14.60;8.70;;;;;;4992771;28;20187;-74
2023/07/21 03:15:15;;;;;;;2.28;1.45;;;14.50;1.00;;;;;;4994272;28;20200;-74
2023/07/21 03:17:41;;;;;;;3.00;1.88;;;14.50;1.00;;;;;;4996688;28;20287;-73
2023/07/21 03:20:14;;;;;;;2.05;1.80;;;14.50;1.00;;;;;;5001724;28;20644;-74
2023/07/21 03:22:41;;;;;;;3.92;1.50;;;14.50;1.00;;;;;;4998104;28;20258;-74
2023/07/21 03:25:07;;;;;;;2.20;1.50;;;14.40;6.30;;;;;;4997487;28;20286;-73
2023/07/21 03:27:33;;;;;;;1.70;1.60;;;14.30;33.20;;;;;;4990287;28;20190;-73
2023/07/21 03:29:59;;;;;;;1.80;1.70;;;14.30;99.90;;;;;;4994379;28;20274;-74
2023/07/21 03:32:24;;;;;;;2.80;1.77;;;14.30;99.90;;;;;;4995746;28;20258;-73
2023/07/21 03:34:52;;;;;;;3.67;1.90;;;14.40;99.90;;;;;;4994224;28;20671;-73
2023/07/21 03:37:18;;;;;;;1.80;1.60;;;14.40;99.90;;;;;;4997778;28;20606;-74
2023/07/21 03:39:44;;;;;;;2.20;2.00;;;14.40;99.90;;;;;;4995216;28;20282;-73
2023/07/21 03:42:10;;;;;;;2.40;1.40;;;14.50;99.90;;;;;;4991703;28;20188;-74
2023/07/21 03:44:36;;;;;;;2.03;1.45;;;14.50;99.90;;;;;;4993827;28;20211;-74
2023/07/21 03:47:01;;;;;;;2.33;1.48;;;14.40;99.90;;;;;;4996746;28;20593;-74
2023/07/21 03:49:27;;;;;;;2.25;1.98;;;14.30;99.90;;;;;;4974321;28;20235;-73
2023/07/21 03:51:53;;;;;;;2.47;1.60;;;14.10;99.90;;;;;;4997544;28;20192;-73
2023/07/21 03:54:18;;;;;;;2.35;1.65;;;14.00;99.90;;;;;;4998457;28;20188;-73
2023/07/21 03:56:44;;;;;;;3.15;1.70;;;14.10;1.00;;;;;;4993687;28;20190;-74
2023/07/21 03:59:10;;;;;;;2.00;1.80;;;14.20;1.00;;;;;;4994440;28;20579;-75
2023/07/21 04:01:35;;;;;;;2.13;1.70;;;14.30;1.00;;;;;;4995521;28;20199;-74
2023/07/21 04:04:02;;;;;;;2.22;1.77;;;14.40;1.00;;;;;;4996488;28;21157;-75
2023/07/21 04:06:27;;;;;;;2.55;1.83;;;14.50;1.00;;;;;;5003720;28;20238;-73
2023/07/21 04:08:53;;;;;;;2.17;1.98;;;14.50;1.00;;;;;;4991869;28;20667;-74
2023/07/21 04:11:19;;;;;;;2.47;1.50;;;14.50;99.90;;;;;;4995548;28;20241;-75
2023/07/21 04:13:45;;;;;;;2.33;1.73;;;14.50;1.00;;;;;;4990708;28;20188;-74
2023/07/21 04:16:11;;;;;;;2.47;2.08;;;14.40;99.90;;;;;;4995796;28;20212;-74
2023/07/21 04:18:38;;;;;;;2.90;1.65;;;14.40;1.00;;;;;;4994203;28;20237;-73
2023/07/21 04:21:04;;;;;;;3.72;1.90;;;14.50;99.90;;;;;;4999529;28;20188;-74
2023/07/21 04:23:29;;;;;;;2.72;1.52;;;14.50;1.00;;;;;;4999695;28;20206;-74
2023/07/21 04:25:55;;;;;;;2.30;1.80;;;14.60;1.00;;;;;;4994151;28;20207;-74
2023/07/21 04:28:21;;;;;;;2.10;1.85;;;14.60;1.00;;;;;;4997214;28;20208;-75
2023/07/21 04:30:47;;;;;;;3.20;1.88;;;14.60;99.90;;;;;;4990869;28;20176;-74
2023/07/21 04:33:13;;;;;;;1.90;1.70;;;14.70;1.00;;;;;;4997637;28;20183;-74
2023/07/21 04:35:46;;;;;;;2.25;1.90;;;14.30;1.00;;;;;;4993465;28;20588;-75
2023/07/21 04:38:12;;;;;;;3.53;1.85;;;14.70;1.00;;;;;;4992453;28;20188;-75
2023/07/21 04:40:44;;;;;;;2.85;1.60;;;14.60;1.00;;;;;;4992896;28;20195;-74
2023/07/21 04:43:10;;;;;;;2.50;1.60;;;14.70;99.90;;;;;;4994683;28;20685;-73
2023/07/21 04:45:39;;;;;;;2.17;1.70;;;14.50;99.90;;;;;;4995196;28;20200;-74
2023/07/21 04:48:05;;;;;;;2.10;1.58;;;14.60;99.90;;;;;;4992319;28;20215;-74
2023/07/21 04:50:30;;;;;;;2.83;1.98;;;14.60;99.90;;;;;;4996254;28;20286;-74
2023/07/21 04:52:56;;;;;;;3.28;1.70;;;14.70;1.00;;;;;;4988210;28;20246;-73
2023/07/21 04:55:22;;;;;;;3.08;2.00;;;14.90;1.00;;;;;;4993309;28;20625;-74
2023/07/21 04:57:48;;;;;;;2.17;1.73;;;15.00;99.90;;;;;;4994705;28;20187;-74
2023/07/21 05:00:15;;;;;;;1.65;1.38;;;15.10;99.90;;;;;;4992263;28;20184;-74
2023/07/21 05:02:41;;;;;;;2.30;1.88;;;15.20;99.90;;;;;;4993667;28;20194;-74
2023/07/21 05:05:07;;;;;;;2.35;1.63;;;15.20;99.90;;;;;;4989861;28;20684;-74
2023/07/21 05:07:33;;;;;;;2.28;1.70;;;15.30;99.90;;;;;;4994000;28;20179;-74
2023/07/21 05:09:58;;;;;;;2.30;1.77;;;15.40;99.90;;;;;;4988190;28;20719;-73
2023/07/21 05:12:27;;;;;;;3.50;1.50;;;15.50;99.90;;;;;;4990805;28;20272;-74
2023/07/21 05:14:53;;;;;;;2.40;1.63;;;15.60;99.90;;;;;;4977495;28;21353;-74
2023/07/21 05:17:19;;;;;;;4.05;2.10;;;15.70;99.90;;;;;;4977870;28;20191;-73
2023/07/21 05:19:45;;;;;;;2.45;2.15;;;15.90;96.50;;;;;;4994409;28;20199;-74
2023/07/21 05:22:11;;;;;;;1.77;1.67;;;15.90;33.30;;;;;;4990734;28;20188;-74
2023/07/21 05:24:37;;;;;;;1.63;1.52;;;16.00;20.50;;;;;;4996348;28;20616;-73
2023/07/21 05:27:03;;;;;;;2.83;2.00;;;16.00;16.00;;;;;;4993953;28;20209;-75
2023/07/21 05:29:28;;;;;;;2.55;1.60;;;16.00;24.60;;;;;;4999278;28;20211;-75
2023/07/21 05:31:54;;;;;;;2.75;1.63;;;16.10;1.60;;;;;;4991675;28;20696;-74
2023/07/21 05:34:21;;;;;;;3.13;1.80;;;16.00;1.00;;;;;;4991475;28;20188;-74
2023/07/21 05:36:47;;;;;;;2.13;1.55;;;16.00;1.00;;;;;;4985550;28;20212;-75
2023/07/21 05:39:13;;;;;;;2.50;1.80;;;15.90;1.00;;;;;;4994778;28;20211;-74
2023/07/21 05:41:39;;;;;;;2.17;1.70;;;16.00;3.40;;;;;;4993953;28;20635;-75
2023/07/21 05:44:04;;;;;;;1.85;1.75;;;16.00;1.00;;;;;;4990574;28;20188;-75
2023/07/21 05:46:31;;;;;;;2.28;2.03;;;16.00;1.00;;;;;;4996206;28;20199;-75
2023/07/21 05:48:57;;;;;;;2.65;1.90;;;16.00;1.00;;;;;;4997915;28;20659;-74
2023/07/21 05:51:23;;;;;;;3.30;2.15;;;16.00;1.00;;;;;;4992615;28;20708;-74
2023/07/21 05:53:48;;;;;;;3.45;2.00;;;16.10;1.00;;;;;;4996666;28;20186;-75
2023/07/21 05:56:15;;;;;;;4.13;2.20;;;16.30;1.00;;;;;;4993215;28;20200;-75
2023/07/21 05:58:41;;;;;;;9.20;2.50;;;16.30;1.00;;;;;;4999536;28;20619;-76
2023/07/21 06:01:10;;;;;;;2.25;1.50;;;16.40;1.00;;;;;;4999608;28;20801;-74
2023/07/21 06:03:37;;;;;;;3.00;2.00;;;16.50;1.00;;;;;;4982175;28;20549;-75
2023/07/21 06:06:05;;;;;;;1.92;1.73;;;16.40;1.00;;;;;;4988300;28;20216;-77
2023/07/21 06:08:30;;;;;;;2.30;1.70;;;16.40;1.00;;;;;;4989965;28;20215;-74
2023/07/21 06:10:57;;;;;;;2.83;1.60;;;16.50;1.00;;;;;;4989905;28;20235;-74
2023/07/21 06:13:23;;;;;;;4.90;2.10;;;16.50;1.00;;;;;;4977584;28;20706;-75
2023/07/21 06:15:49;;;;;;;2.42;2.00;;;16.50;1.00;;;;;;4982113;28;20203;-74
2023/07/21 06:18:15;;;;;;;3.10;1.77;;;16.60;1.00;;;;;;4993785;28;20691;-74
2023/07/21 06:20:40;;;;;;;2.78;1.90;;;16.50;1.00;;;;;;4995975;28;20639;-74
2023/07/21 06:23:06;;;;;;;3.15;1.67;;;16.50;1.00;;;;;;4996621;28;20199;-74
2023/07/21 06:25:32;;;;;;;2.67;1.67;;;16.50;1.00;;;;;;4997585;28;20208;-75
2023/07/21 06:27:58;;;;;;;3.72;2.30;;;16.60;1.00;;;;;;5000177;28;20199;-75
2023/07/21 06:30:23;;;;;;;2.08;1.98;;;16.60;1.00;;;;;;4998685;28;20188;-74
2023/07/21 06:33:07;;;;;;;4.32;1.90;;;16.80;1.00;;;;;;4997547;28;20226;-76
2023/07/21 06:35:42;;;;;;;2.83;1.65;;;16.90;1.00;;;;;;4995050;28;20208;-72
2023/07/21 06:38:08;;;;;;;2.25;2.05;;;16.90;1.00;;;;;;4994396;28;20191;-75
2023/07/21 06:40:34;;;;;;;2.70;1.60;;;17.00;1.00;;;;;;4998550;28;20192;-74
2023/07/21 06:42:59;;;;;;;3.25;1.85;;;17.10;1.00;;;;;;4997602;28;20198;-74
2023/07/21 06:45:25;;;;;;;3.22;1.85;;;17.20;1.00;;;;;;4997349;28;20525;-75
2023/07/21 06:48:01;;;;;;;2.30;1.80;;;17.20;1.00;;;;;;4994777;28;20195;-73
2023/07/21 06:50:27;;;;;;;2.10;1.70;;;17.40;1.00;;;;;;4995343;28;20195;-74
2023/07/21 06:53:01;;;;;;;4.07;1.60;;;17.40;1.00;;;;;;4997654;28;20187;-72
2023/07/21 06:55:26;;;;;;;1.98;1.70;;;17.50;1.00;;;;;;4996368;28;20208;-74
2023/07/21 06:57:52;;;;;;;2.70;1.85;;;17.60;1.00;;;;;;4993592;28;20208;-74
2023/07/21 07:00:18;;;;;;;1.77;1.67;;;18.00;1.00;;;;;;5000810;28;20283;-74
2023/07/21 07:02:49;;;;;;;3.22;1.70;;;18.30;1.00;;;;;;4994763;28;20192;-74
2023/07/21 07:05:16;;;;;;;2.03;1.70;;;18.40;1.00;;;;;;5004084;28;20223;-74
2023/07/21 07:07:42;;;;;;;3.20;1.50;;;18.40;1.00;;;;;;4994698;28;20695;-73
2023/07/21 07:10:08;;;;;;;2.65;1.60;;;18.40;1.00;;;;;;4997283;28;20295;-74
2023/07/21 07:12:34;;;;;;;1.92;1.42;;;18.40;1.00;;;;;;5000295;28;20309;-75
2023/07/21 07:15:00;;;;;;;3.92;1.63;;;18.40;1.00;;;;;;4980542;28;20290;-74
2023/07/21 07:17:26;;;;;;;1.60;1.42;;;18.50;1.00;;;;;;4999849;28;20183;-74
2023/07/21 07:19:51;;;;;;;1.60;1.40;;;18.50;1.00;;;;;;4989872;28;20196;-74
2023/07/21 07:22:17;;;;;;;2.65;1.40;;;18.50;1.00;;;;;;5002403;28;20698;-75
2023/07/21 07:24:43;;;;;;;2.40;1.73;;;18.60;1.00;;;;;;4994906;28;20727;-74
2023/07/21 07:27:09;;;;;;;1.83;1.40;;;18.80;1.00;;;;;;4999006;28;20195;-74
2023/07/21 07:29:35;;;;;;;1.75;1.45;;;18.90;1.00;;;;;;4998414;28;20204;-74
2023/07/21 07:32:01;;;;;;;2.40;1.30;;;19.30;1.00;;;;;;4996689;28;20186;-74
2023/07/21 07:34:27;;;;;;;1.50;1.40;;;19.60;1.00;;;;;;4995347;28;20200;-74
2023/07/21 07:36:53;;;;;;;2.38;1.30;;;19.70;1.00;;;;;;4994576;28;20682;-75
2023/07/21 07:39:18;;;;;;;3.00;1.27;;;19.90;1.00;;;;;;4977546;28;20179;-75
2023/07/21 07:41:49;;;;;;;3.65;1.67;;;20.10;1.00;;;;;;4995157;28;20627;-75
2023/07/21 07:44:15;;;;;;;1.48;1.33;;;20.20;1.00;;;;;;4994853;28;20310;-74
2023/07/21 07:46:41;;;;;;;1.83;1.33;;;20.10;1.00;;;;;;4996220;28;20298;-75
2023/07/21 07:49:06;;;;;;;3.25;1.67;;;20.00;1.00;;;;;;4998185;28;20204;-75
2023/07/21 07:51:32;;;;;;;2.67;1.50;;;20.10;1.00;;;;;;4997452;28;20665;-74
2023/07/21 07:53:58;;;;;;;4.65;1.30;;;20.20;1.00;;;;;;4993136;28;20181;-74
2023/07/21 07:56:23;;;;;;;2.80;1.42;;;19.70;1.00;;;;;;4997209;28;20630;-74
2023/07/21 07:58:49;;;;;;;2.08;1.50;;;19.50;1.00;;;;;;4993041;28;20593;-75
2023/07/21 08:01:15;;;;;;;1.75;1.05;;;19.60;1.00;;;;;;4992392;28;20207;-74
2023/07/21 08:03:43;;;;;;;2.25;1.33;;;20.00;1.00;;;;;;4994172;28;21126;-74
2023/07/21 08:06:13;;;;;;;2.05;1.30;;;20.20;1.00;;;;;;4987301;28;20273;-75
2023/07/21 08:08:40;;;;;;;2.38;1.25;;;20.50;1.00;;;;;;4995963;28;20565;-74
2023/07/21 08:11:06;;;;;;;2.08;1.23;;;20.80;1.00;;;;;;4995207;28;20211;-75
2023/07/21 08:13:32;;;;;;;1.20;1.10;;;21.10;1.00;;;;;;4991893;28;20699;-76
2023/07/21 08:15:58;;;;;;;2.65;1.30;;;21.50;1.00;;;;;;4991920;28;20295;-74
2023/07/21 08:18:24;;;;;;;2.42;1.40;;;21.60;1.00;;;;;;4993537;28;20187;-76
2023/07/21 08:20:51;;;;;;;1.30;1.20;;;21.30;1.00;;;;;;4992994;28;20242;-75
2023/07/21 08:23:16;;;;;;;1.30;1.20;;;21.70;1.00;;;;;;4993151;28;20223;-74
2023/07/21 08:25:42;;;;;;;1.77;1.25;;;21.90;1.00;;;;;;4993566;28;20714;-75
2023/07/21 08:28:08;;;;;;;2.08;1.20;;;22.00;1.00;;;;;;4995065;28;20203;-75
2023/07/21 08:30:35;;;;;;;1.90;1.17;;;21.60;1.00;;;;;;4994742;28;20258;-76
2023/07/21 08:33:02;;;;;;;1.40;1.20;;;22.00;1.00;;;;;;4992981;28;20183;-74
2023/07/21 08:35:28;;;;;;;2.72;1.30;;;22.10;1.00;;;;;;4994745;28;20577;-75
2023/07/21 08:37:54;;;;;;;1.88;1.15;;;22.30;1.00;;;;;;4988364;28;20180;-73
2023/07/21 08:40:22;;;;;;;2.53;1.20;;;22.50;1.00;;;;;;5001317;28;20298;-73
2023/07/21 08:42:49;;;;;;;1.92;1.10;;;22.60;1.00;;;;;;4991040;28;20192;-72
2023/07/21 08:45:15;;;;;;;1.70;1.10;;;22.70;1.00;;;;;;4995408;28;20211;-73
2023/07/21 08:47:41;;;;;;;1.30;1.20;;;22.20;1.00;;;;;;4993391;28;20545;-73
2023/07/21 08:50:07;;;;;;;1.33;1.20;;;22.00;1.00;;;;;;4996051;28;20221;-73
2023/07/21 08:52:33;;;;;;;2.60;1.15;;;21.70;1.00;;;;;;4985884;28;20302;-73
2023/07/21 08:55:00;;;;;;;2.30;0.90;;;22.10;1.00;;;;;;4990254;28;20199;-73
2023/07/21 08:57:25;;;;;;;1.33;1.10;;;22.50;1.00;;;;;;4994639;28;20180;-73
2023/07/21 08:59:55;;;;;;;1.15;1.05;;;22.50;1.00;;;;;;4994697;28;20563;-74
2023/07/21 09:02:46;;;;;;;1.73;1.00;;;22.50;1.00;;;;;;4993124;28;20192;-72
2023/07/21 09:05:16;;;;;;;1.20;1.10;;;22.60;1.00;;;;;;4998871;28;20223;-72
2023/07/21 09:07:42;;;;;;;2.05;1.27;;;22.70;1.00;;;;;;4990148;28;20184;-73
2023/07/21 09:10:09;;;;;;;1.52;1.13;;;22.80;1.00;;;;;;4990039;28;20220;-72
2023/07/21 09:12:36;;;;;;;1.60;1.00;;;22.70;1.00;;;;;;4999754;28;20540;-72
2023/07/21 09:15:11;;;;;;;1.27;1.10;;;22.30;1.00;;;;;;4998094;28;20259;-72
2023/07/21 09:17:43;;;;;;;1.27;1.17;;;22.10;1.00;;;;;;4997949;28;20208;-72
2023/07/21 09:20:12;;;;;;;1.30;1.20;;;22.10;1.00;;;;;;4995503;28;20286;-72
2023/07/21 09:22:40;;;;;;;1.10;1.00;;;21.80;1.00;;;;;;4993582;28;20187;-73
2023/07/21 09:25:08;;;;;;;1.20;1.10;;;21.60;1.00;;;;;;4991195;28;20212;-72
2023/07/21 09:27:35;;;;;;;1.50;1.40;;;21.20;1.00;;;;;;4998657;28;20837;-72
2023/07/21 09:30:03;;;;;;;1.83;1.27;;;21.10;1.00;;;;;;5000553;28;20625;-72
2023/07/21 09:32:38;;;;;;;2.15;1.17;;;21.10;1.00;;;;;;4995310;28;20888;-72
2023/07/21 09:35:05;;;;;;;2.67;1.10;;;21.10;1.00;;;;;;4996024;28;20898;-75
2023/07/21 09:37:33;;;;;;;1.48;1.38;;;21.40;1.00;;;;;;4997859;28;20275;-72
2023/07/21 09:40:10;;;;;;;2.00;1.05;;;21.70;1.00;;;;;;5000859;28;20271;-72
2023/07/21 09:42:37;;;;;;;1.65;1.02;;;21.80;1.00;;;;;;4984923;28;20238;-72
2023/07/21 09:45:03;;;;;;;1.10;1.00;;;22.00;1.00;;;;;;4996827;28;20682;-73
2023/07/21 09:47:28;;;;;;;1.85;1.20;;;22.10;1.00;;;;;;4999618;28;20183;-73
2023/07/21 09:49:57;;;;;;;1.08;0.98;;;22.10;1.00;;;;;;5005386;28;20286;-72
2023/07/21 09:52:25;;;;;;;2.00;1.00;;;22.20;1.00;;;;;;4999162;28;20632;-72
2023/07/21 09:55:10;;;;;;;1.20;1.02;;;22.60;1.00;;;;;;4999516;28;20679;-72
2023/07/21 09:57:45;;;;;;;1.35;1.13;;;22.70;1.00;;;;;;4988669;28;20951;-73
2023/07/21 10:00:13;;;;;;;0.98;0.98;;;22.70;1.00;;;;;;4998549;28;20176;-73
2023/07/21 10:02:43;;;;;;;1.55;1.00;;;22.70;1.00;;;;;;4994356;28;20210;-73
2023/07/21 10:05:10;;;;;;;1.40;1.30;;;22.60;1.00;;;;;;4974601;28;20553;-73
2023/07/21 10:07:44;;;;;;;2.22;1.27;;;23.00;1.00;;;;;;4993759;28;20176;-73
2023/07/21 10:10:11;;;;;;;1.10;1.00;;;23.10;1.00;;;;;;4994547;28;20691;-73
2023/07/21 10:12:52;;;;;;;1.02;1.00;;;23.30;1.00;;;;;;5000223;28;20210;-73
2023/07/21 10:15:30;;;;;;;1.10;1.00;;;23.50;1.00;;;;;;4992215;28;20291;-73
2023/07/21 10:18:01;;;;;;;2.35;1.30;;;23.30;1.00;;;;;;4996114;28;20180;-73
2023/07/21 10:20:39;;;;;;;1.27;1.00;;;23.20;1.00;;;;;;4998139;28;20686;-73
2023/07/21 10:23:06;;;;;;;1.50;1.10;;;23.10;1.00;;;;;;4996108;28;20656;-73
2023/07/21 10:26:03;;;;;;;2.00;1.27;;;23.30;1.00;;;;;;4993288;28;20208;-73
2023/07/21 10:29:13;;;;;;;1.10;1.00;;;23.50;1.00;;;;;;4998948;28;20207;-73
2023/07/21 10:31:51;;;;;;;1.23;1.13;;;23.60;1.00;;;;;;4989016;28;20191;-72
2023/07/21 10:34:17;;;;;;;0.90;0.90;;;23.60;1.00;;;;;;4994585;28;20198;-72
2023/07/21 10:36:53;;;;;;;1.55;1.10;;;23.70;1.00;;;;;;4995267;28;20217;-73
2023/07/21 10:39:20;;;;;;;1.20;1.00;;;23.80;1.00;;;;;;4994893;28;20557;-73
2023/07/21 10:41:54;;;;;;;1.33;1.20;;;24.00;1.00;;;;;;4996583;28;20187;-72
2023/07/21 10:44:21;;;;;;;1.17;1.10;;;24.00;1.00;;;;;;4996675;28;20178;-73
2023/07/21 10:46:48;;;;;;;1.35;1.15;;;23.50;1.00;;;;;;4998607;28;20195;-73
2023/07/21 10:49:16;;;;;;;2.00;1.17;;;23.30;1.00;;;;;;4995580;28;20215;-72
2023/07/21 10:51:44;;;;;;;1.75;1.10;;;23.30;1.00;;;;;;5002095;28;20531;-72
2023/07/21 10:54:10;;;;;;;1.27;1.10;;;23.40;1.00;;;;;;4994627;28;20172;-73
2023/07/21 10:56:45;;;;;;;2.28;1.33;;;23.40;1.00;;;;;;4998228;28;20208;-73
2023/07/21 10:59:11;;;;;;;1.40;1.30;;;23.40;1.00;;;;;;4983628;28;20188;-73
2023/07/21 11:01:56;;;;;;;2.72;1.10;;;23.20;1.00;;;;;;4993102;28;20180;-73
2023/07/21 11:04:22;;;;;;;1.67;1.30;;;23.20;1.00;;;;;;4993904;28;20208;-72
2023/07/21 11:06:57;;;;;;;2.03;1.13;;;23.40;1.00;;;;;;4994435;28;20279;-73
2023/07/21 11:09:25;;;;;;;1.40;1.30;;;23.30;1.00;;;;;;4992370;28;20206;-72
2023/07/21 11:11:57;;;;;;;1.38;1.20;;;23.20;1.00;;;;;;4981618;28;20556;-73
2023/07/21 11:14:27;;;;;;;1.50;1.38;;;23.00;1.00;;;;;;5003284;28;20211;-72
2023/07/21 11:16:57;;;;;;;1.45;1.15;;;22.80;1.00;;;;;;4998225;28;20718;-72
2023/07/21 11:19:27;;;;;;;1.52;1.42;;;22.60;1.00;;;;;;4994904;28;20187;-72
2023/07/21 11:21:53;;;;;;;1.83;1.40;;;22.30;1.00;;;;;;4975042;28;20517;-73
2023/07/21 11:24:22;;;;;;;2.95;1.70;;;22.40;1.00;;;;;;4996411;28;20199;-72
2023/07/21 11:26:49;;;;;;;2.22;1.60;;;22.60;1.00;;;;;;4995736;28;20188;-73
2023/07/21 11:29:16;;;;;;;1.65;1.55;;;22.70;1.00;;;;;;4992667;28;20204;-73
2023/07/21 11:31:42;;;;;;;1.73;1.58;;;22.90;1.00;;;;;;4998392;28;20188;-71
2023/07/21 11:34:28;;;;;;;1.40;1.30;;;23.00;1.00;;;;;;4996097;28;21139;-73
2023/07/21 11:36:58;;;;;;;2.55;1.50;;;22.90;1.00;;;;;;5001297;28;20180;-73
2023/07/21 11:39:24;;;;;;;1.13;1.00;;;22.90;1.00;;;;;;4993395;28;20725;-73
2023/07/21 11:41:55;;;;;;;1.20;1.10;;;23.10;1.00;;;;;;4991526;28;20277;-73
2023/07/21 11:44:32;;;;;;;1.50;1.10;;;23.30;1.00;;;;;;4993143;28;20552;-73
2023/07/21 11:47:05;;;;;;;1.00;0.90;;;23.70;1.00;;;;;;4991713;28;20562;-72
2023/07/21 11:49:32;;;;;;;1.10;1.00;;;23.90;1.00;;;;;;4992586;28;20224;-72
2023/07/21 11:52:02;;;;;;;1.00;1.00;;;23.90;1.00;;;;;;4990625;28;20210;-72
2023/07/21 11:54:35;;;;;;;1.25;1.00;;;24.10;1.00;;;;;;4996431;28;20304;-72
2023/07/21 11:57:01;;;;;;;1.38;1.10;;;24.20;1.00;;;;;;4987653;28;20215;-72
2023/07/21 11:59:26;;;;;;;2.78;1.00;;;24.30;1.00;;;;;;4998867;28;20223;-72
2023/07/21 12:01:55;;;;;;;1.45;0.95;;;24.20;1.00;;;;;;4989231;28;20208;-73
2023/07/21 12:04:22;;;;;;;1.33;1.15;;;24.20;1.00;;;;;;4995712;28;20661;-72
2023/07/21 12:06:48;;;;;;;1.17;1.08;;;24.30;1.00;;;;;;4994325;28;20668;-72
2023/07/21 12:09:14;;;;;;;1.10;1.00;;;24.50;1.00;;;;;;4991888;28;20279;-74
2023/07/21 12:11:40;;;;;;;1.65;1.10;;;24.40;1.00;;;;;;4993661;28;20187;-73
2023/07/21 12:14:06;;;;;;;1.42;1.27;;;24.50;1.00;;;;;;4996785;28;20187;-73
2023/07/21 12:16:35;;;;;;;1.70;1.13;;;24.40;1.00;;;;;;4992120;28;20180;-72
2023/07/21 12:19:03;;;;;;;1.10;1.00;;;24.40;1.00;;;;;;4994282;28;20176;-73
2023/07/21 12:21:30;;;;;;;1.30;1.10;;;24.30;1.00;;;;;;4989473;28;20287;-73
2023/07/21 12:23:56;;;;;;;1.30;1.20;;;24.40;1.00;;;;;;4993506;28;20270;-72
2023/07/21 12:26:22;;;;;;;1.30;1.20;;;24.70;1.00;;;;;;4978639;28;20208;-74
2023/07/21 12:28:50;;;;;;;2.13;1.10;;;25.00;1.00;;;;;;4993542;28;20599;-72
2023/07/21 12:31:16;;;;;;;1.10;1.00;;;25.30;1.00;;;;;;4994560;28;20179;-73
2023/07/21 12:33:44;;;;;;;1.05;0.95;;;25.20;1.00;;;;;;4997405;28;20175;-72
2023/07/21 12:36:11;;;;;;;1.30;1.20;;;25.30;1.00;;;;;;4993214;28;20303;-74
2023/07/21 12:38:37;;;;;;;2.95;1.25;;;25.30;1.00;;;;;;4994597;28;20184;-72
2023/07/21 12:41:03;;;;;;;1.23;1.13;;;25.00;1.00;;;;;;4996351;28;20598;-73
2023/07/21 12:43:29;;;;;;;1.20;1.10;;;24.90;1.00;;;;;;4979961;28;20180;-73
2023/07/21 12:45:54;;;;;;;1.35;1.10;;;25.00;1.00;;;;;;4994608;28;20283;-72
2023/07/21 12:48:20;;;;;;;1.52;1.13;;;25.20;1.00;;;;;;4996627;28;20214;-72
2023/07/21 12:50:46;;;;;;;1.40;1.30;;;24.90;1.00;;;;;;4994353;28;20274;-73
2023/07/21 12:53:12;;;;;;;2.38;1.10;;;24.80;1.00;;;;;;4993547;28;20591;-73
2023/07/21 12:55:37;;;;;;;1.25;1.10;;;24.30;1.00;;;;;;4995636;28;20297;-73
2023/07/21 12:58:03;;;;;;;1.75;1.20;;;23.30;1.00;;;;;;4992772;28;20180;-72